createdAt,value
2022-12-09T00:00:24.311Z,18.85
2022-12-09T00:01:25.786Z,18.86
2022-12-09T00:02:30.240Z,18.87
2022-12-09T00:03:32.216Z,18.89
2022-12-09T00:04:33.980Z,18.89
2022-12-09T00:05:38.718Z,18.88
2022-12-09T00:06:40.194Z,18.89
2022-12-09T00:07:41.872Z,18.88
2022-12-09T00:08:44.253Z,18.81
2022-12-09T00:09:45.869Z,18.84
2022-12-09T00:10:50.998Z,18.84
2022-12-09T00:11:52.887Z,18.87
2022-12-09T00:12:56.320Z,18.88
2022-12-09T00:14:00.112Z,18.84
2022-12-09T00:15:01.555Z,18.84
2022-12-09T00:16:12.563Z,18.89
2022-12-09T00:17:14.236Z,18.89
2022-12-09T00:18:15.707Z,18.86
2022-12-09T00:19:17.337Z,18.85
2022-12-09T00:20:18.909Z,18.83
2022-12-09T00:21:25.779Z,18.87
2022-12-09T00:22:28.874Z,18.88
2022-12-09T00:23:30.255Z,18.88
2022-12-09T00:24:32.419Z,18.82
2022-12-09T00:25:34.240Z,18.89
2022-12-09T00:26:35.866Z,18.91
2022-12-09T00:27:37.336Z,18.79
2022-12-09T00:28:43.136Z,18.89
2022-12-09T00:29:44.621Z,18.91
2022-12-09T00:30:46.036Z,18.90
2022-12-09T00:31:47.662Z,18.73
2022-12-09T00:32:49.315Z,18.88
2022-12-09T00:33:52.703Z,18.90
2022-12-09T00:34:54.436Z,18.90
2022-12-09T00:35:56.041Z,18.84
2022-12-09T00:36:57.618Z,18.85
2022-12-09T00:37:59.553Z,18.88
2022-12-09T00:39:01.426Z,18.89
2022-12-09T00:40:03.455Z,18.89
2022-12-09T00:41:06.027Z,18.91
2022-12-09T00:42:07.483Z,18.91
2022-12-09T00:43:09.259Z,18.89
2022-12-09T00:44:11.828Z,18.86
2022-12-09T00:45:13.162Z,18.90
2022-12-09T00:46:15.295Z,18.89
2022-12-09T00:47:16.931Z,18.86
2022-12-09T00:48:18.546Z,18.83
2022-12-09T00:49:20.241Z,18.90
2022-12-09T00:50:22.141Z,18.90
2022-12-09T00:51:25.259Z,18.90
2022-12-09T00:52:26.835Z,18.90
2022-12-09T00:53:28.648Z,18.88
2022-12-09T00:54:30.194Z,18.89
2022-12-09T00:55:31.839Z,18.85
2022-12-09T00:56:33.406Z,18.74
2022-12-09T00:57:34.837Z,18.73
2022-12-09T00:58:38.741Z,18.88
2022-12-09T00:59:40.137Z,18.87
2022-12-09T01:00:41.949Z,18.84
2022-12-09T01:01:43.480Z,18.85
2022-12-09T01:02:45.383Z,18.88
2022-12-09T01:03:46.946Z,18.74
2022-12-09T01:04:52.267Z,18.86
2022-12-09T01:05:55.367Z,18.86
2022-12-09T01:07:01.010Z,18.85
2022-12-09T01:08:02.648Z,18.84
2022-12-09T01:09:04.209Z,18.87
2022-12-09T01:10:07.340Z,18.87
2022-12-09T01:11:21.066Z,18.83
2022-12-09T01:12:22.717Z,18.85
2022-12-09T01:13:24.339Z,18.87
2022-12-09T01:14:25.825Z,18.88
2022-12-09T01:15:28.862Z,18.87
2022-12-09T01:16:32.782Z,18.85
2022-12-09T01:17:37.046Z,18.84
2022-12-09T01:18:38.962Z,18.80
2022-12-09T01:19:41.332Z,18.84
2022-12-09T01:20:42.815Z,18.80
2022-12-09T01:21:44.450Z,18.84
2022-12-09T01:22:50.621Z,18.75
2022-12-09T01:23:55.749Z,18.75
2022-12-09T01:24:57.266Z,18.81
2022-12-09T01:25:58.632Z,18.85
2022-12-09T01:27:00.281Z,18.85
2022-12-09T01:28:01.833Z,18.86
2022-12-09T01:29:04.306Z,18.83
2022-12-09T01:30:08.539Z,18.82
2022-12-09T01:31:18.836Z,18.86
2022-12-09T01:32:20.486Z,18.87
2022-12-09T01:33:22.213Z,18.83
2022-12-09T01:34:23.993Z,18.82
2022-12-09T01:35:25.626Z,18.84
2022-12-09T01:36:29.926Z,18.75
2022-12-09T01:37:38.386Z,18.83
2022-12-09T01:38:40.176Z,18.86
2022-12-09T01:39:41.668Z,18.77
2022-12-09T01:40:47.175Z,18.77
2022-12-09T01:41:54.323Z,18.74
2022-12-09T01:42:55.958Z,18.81
2022-12-09T01:44:18.103Z,18.83
2022-12-09T01:45:19.837Z,18.84
2022-12-09T01:46:21.701Z,18.81
2022-12-09T01:47:23.673Z,18.83
2022-12-09T01:48:32.242Z,18.83
2022-12-09T01:49:43.179Z,18.83
2022-12-09T01:50:49.650Z,18.83
2022-12-09T01:52:24.294Z,18.86
2022-12-09T01:53:29.599Z,18.84
2022-12-09T01:54:32.596Z,18.80
2022-12-09T01:55:39.262Z,18.84
2022-12-09T01:56:41.572Z,18.81
2022-12-09T01:57:45.138Z,18.66
2022-12-09T01:58:47.890Z,18.82
2022-12-09T01:59:49.950Z,18.80
2022-12-09T02:00:54.471Z,18.72
2022-12-09T02:01:59.476Z,18.81
2022-12-09T02:03:02.294Z,18.79
2022-12-09T02:04:05.086Z,18.81
2022-12-09T02:05:07.489Z,18.80
2022-12-09T02:06:09.166Z,18.79
2022-12-09T02:07:10.755Z,18.74
2022-12-09T02:08:14.619Z,18.75
2022-12-09T02:09:16.408Z,18.79
2022-12-09T02:10:18.810Z,18.63
2022-12-09T02:11:44.157Z,18.79
2022-12-09T02:13:20.406Z,18.79
2022-12-09T02:14:30.169Z,18.81
2022-12-09T02:15:57.521Z,18.81
2022-12-09T02:17:32.493Z,18.79
2022-12-09T02:19:03.770Z,18.79
2022-12-09T02:20:05.899Z,18.79
2022-12-09T02:21:25.647Z,18.72
2022-12-09T02:22:32.992Z,18.79
2022-12-09T02:23:41.380Z,18.66
2022-12-09T02:25:03.938Z,18.81
2022-12-09T02:26:26.724Z,18.79
2022-12-09T02:27:51.056Z,18.81
2022-12-09T02:29:22.951Z,18.81
2022-12-09T02:30:37.131Z,18.73
2022-12-09T02:32:07.507Z,18.70
2022-12-09T02:33:43.702Z,18.80
2022-12-09T02:35:18.636Z,18.81
2022-12-09T02:36:24.535Z,18.78
2022-12-09T02:37:37.109Z,18.79
2022-12-09T02:38:41.102Z,18.76
2022-12-09T02:39:51.001Z,18.71
2022-12-09T02:41:04.284Z,18.78
2022-12-09T02:42:09.158Z,18.76
2022-12-09T02:43:16.717Z,18.78
2022-12-09T02:44:23.023Z,18.76
2022-12-09T02:45:30.033Z,18.73
2022-12-09T02:46:34.609Z,18.66
2022-12-09T02:47:41.578Z,18.75
2022-12-09T02:48:49.547Z,18.74
2022-12-09T02:49:56.786Z,18.76
2022-12-09T02:50:59.393Z,18.75
2022-12-09T02:52:03.542Z,18.75
2022-12-09T02:53:08.679Z,18.62
2022-12-09T02:54:15.402Z,18.71
2022-12-09T02:55:19.377Z,18.70
2022-12-09T02:56:22.500Z,18.72
2022-12-09T02:57:29.093Z,18.72
2022-12-09T02:58:30.535Z,18.71
2022-12-09T02:59:32.170Z,18.72
2022-12-09T03:00:34.022Z,18.71
2022-12-09T03:01:43.378Z,18.71
2022-12-09T03:02:49.869Z,18.71
2022-12-09T03:03:53.858Z,18.71
2022-12-09T03:05:04.521Z,18.69
2022-12-09T03:06:10.498Z,18.71
2022-12-09T03:07:18.851Z,18.72
2022-12-09T03:08:30.679Z,18.71
2022-12-09T03:09:38.718Z,18.72
2022-12-09T03:11:08.332Z,18.74
2022-12-09T03:12:12.825Z,18.68
2022-12-09T03:13:30.518Z,18.70
2022-12-09T03:14:38.882Z,18.70
2022-12-09T03:15:48.749Z,18.71
2022-12-09T03:17:01.417Z,18.61
2022-12-09T03:18:09.270Z,18.73
2022-12-09T03:19:31.597Z,18.71
